sensor_id;sensor_type;location;lat;lon;timestamp;pressure;altitude;pressure_sealevel;temperature;humidity
62557;BME280;48612;50.742;-1.226;2022-09-09T00:48:16;97749.06;;;14.99;100.00
62557;BME280;48612;50.742;-1.226;2022-09-09T00:51:05;97735.78;;;14.99;100.00
62557;BME280;48612;50.742;-1.226;2022-09-09T00:54:04;97742.31;;;15.02;100.00
62557;BME280;48612;50.742;-1.226;2022-09-09T00:56:49;97744.66;;;15.03;100.00
62557;BME280;48612;50.742;-1.226;2022-09-09T01:01:51;97764.91;;;15.16;100.00
62557;BME280;48612;50.742;-1.226;2022-09-09T01:04:38;97742.75;;;15.12;100.00
62557;BME280;48612;50.742;-1.226;2022-09-09T01:07:17;97741.97;;;15.12;100.00
62557;BME280;48612;50.742;-1.226;2022-09-09T01:09:56;97742.88;;;15.16;100.00
62557;BME280;48612;50.742;-1.226;2022-09-09T01:12:40;97756.94;;;15.16;100.00
62557;BME280;48612;50.742;-1.226;2022-09-09T01:15:26;97760.19;;;15.22;100.00
62557;BME280;48612;50.742;-1.226;2022-09-09T01:18:15;97759.09;;;15.23;100.00
62557;BME280;48612;50.742;-1.226;2022-09-09T01:26:32;97753.50;;;15.16;100.00
62557;BME280;48612;50.742;-1.226;2022-09-09T01:29:19;97766.63;;;15.21;100.00
62557;BME280;48612;50.742;-1.226;2022-09-09T01:32:01;97761.00;;;15.14;100.00
62557;BME280;48612;50.742;-1.226;2022-09-09T01:34:31;97774.47;;;15.17;100.00
62557;BME280;48612;50.742;-1.226;2022-09-09T01:37:05;97778.16;;;15.25;100.00
62557;BME280;48612;50.742;-1.226;2022-09-09T01:39:33;97778.34;;;15.20;100.00
62557;BME280;48612;50.742;-1.226;2022-09-09T01:42:05;97782.25;;;15.14;100.00
62557;BME280;48612;50.742;-1.226;2022-09-09T01:44:32;97794.63;;;15.18;100.00
62557;BME280;48612;50.742;-1.226;2022-09-09T01:46:59;97799.16;;;15.18;100.00
62557;BME280;48612;50.742;-1.226;2022-09-09T01:49:25;97805.25;;;15.18;100.00
62557;BME280;48612;50.742;-1.226;2022-09-09T01:51:55;97806.16;;;15.23;100.00
62557;BME280;48612;50.742;-1.226;2022-09-09T01:54:24;97807.69;;;15.24;100.00
62557;BME280;48612;50.742;-1.226;2022-09-09T01:59:48;97811.47;;;15.23;100.00
62557;BME280;48612;50.742;-1.226;2022-09-09T02:04:50;97821.00;;;15.24;100.00
62557;BME280;48612;50.742;-1.226;2022-09-09T02:07:39;97830.53;;;15.25;100.00
62557;BME280;48612;50.742;-1.226;2022-09-09T02:10:36;97837.41;;;15.26;100.00
62557;BME280;48612;50.742;-1.226;2022-09-09T02:13:15;97827.88;;;15.25;100.00
62557;BME280;48612;50.742;-1.226;2022-09-09T02:21:06;97840.38;;;15.24;100.00
62557;BME280;48612;50.742;-1.226;2022-09-09T02:23:37;97832.88;;;15.26;100.00
62557;BME280;48612;50.742;-1.226;2022-09-09T02:26:08;97838.97;;;15.27;100.00
62557;BME280;48612;50.742;-1.226;2022-09-09T02:28:37;97841.19;;;15.25;100.00
62557;BME280;48612;50.742;-1.226;2022-09-09T02:31:07;97851.00;;;15.24;100.00
62557;BME280;48612;50.742;-1.226;2022-09-09T02:33:40;97851.00;;;15.24;100.00
62557;BME280;48612;50.742;-1.226;2022-09-09T02:36:08;97856.97;;;15.21;100.00
62557;BME280;48612;50.742;-1.226;2022-09-09T02:38:46;97867.16;;;15.19;100.00
62557;BME280;48612;50.742;-1.226;2022-09-09T02:41:20;97879.50;;;15.15;100.00
62557;BME280;48612;50.742;-1.226;2022-09-09T02:43:49;97873.13;;;15.07;100.00
62557;BME280;48612;50.742;-1.226;2022-09-09T02:49:31;97878.94;;;15.01;100.00
62557;BME280;48612;50.742;-1.226;2022-09-09T02:52:04;97891.59;;;14.95;100.00
62557;BME280;48612;50.742;-1.226;2022-09-09T02:54:35;97885.97;;;14.96;100.00
62557;BME280;48612;50.742;-1.226;2022-09-09T02:57:28;97893.00;;;15.01;100.00
62557;BME280;48612;50.742;-1.226;2022-09-09T02:59:58;97883.00;;;14.89;100.00
62557;BME280;48612;50.742;-1.226;2022-09-09T03:02:25;97891.63;;;14.86;100.00
62557;BME280;48612;50.742;-1.226;2022-09-09T03:04:54;97911.47;;;14.89;100.00
62557;BME280;48612;50.742;-1.226;2022-09-09T03:07:20;97915.84;;;14.93;100.00
62557;BME280;48612;50.742;-1.226;2022-09-09T03:09:46;97902.91;;;14.83;100.00
62557;BME280;48612;50.742;-1.226;2022-09-09T03:12:11;97918.31;;;14.90;100.00
62557;BME280;48612;50.742;-1.226;2022-09-09T03:14:38;97912.25;;;14.89;100.00
62557;BME280;48612;50.742;-1.226;2022-09-09T03:17:05;97922.72;;;14.94;100.00
62557;BME280;48612;50.742;-1.226;2022-09-09T03:19:31;97918.50;;;14.93;100.00
62557;BME280;48612;50.742;-1.226;2022-09-09T03:21:57;97909.28;;;14.91;100.00
62557;BME280;48612;50.742;-1.226;2022-09-09T03:24:23;97930.97;;;15.02;100.00
62557;BME280;48612;50.742;-1.226;2022-09-09T03:27:09;97916.91;;;15.01;100.00
62557;BME280;48612;50.742;-1.226;2022-09-09T03:29:35;97926.44;;;15.02;100.00
62557;BME280;48612;50.742;-1.226;2022-09-09T03:32:01;97910.53;;;14.93;100.00
62557;BME280;48612;50.742;-1.226;2022-09-09T03:34:26;97928.94;;;14.99;100.00
62557;BME280;48612;50.742;-1.226;2022-09-09T03:36:52;97926.63;;;14.97;100.00
62557;BME280;48612;50.742;-1.226;2022-09-09T03:42:47;97930.19;;;15.01;100.00
62557;BME280;48612;50.742;-1.226;2022-09-09T03:45:13;97938.19;;;15.01;100.00
62557;BME280;48612;50.742;-1.226;2022-09-09T03:47:40;97945.06;;;14.93;100.00
62557;BME280;48612;50.742;-1.226;2022-09-09T03:50:07;97938.03;;;14.98;100.00
62557;BME280;48612;50.742;-1.226;2022-09-09T03:52:38;97948.31;;;14.99;100.00
62557;BME280;48612;50.742;-1.226;2022-09-09T03:55:06;97948.31;;;14.99;100.00
62557;BME280;48612;50.742;-1.226;2022-09-09T03:57:33;97942.41;;;14.93;100.00
62557;BME280;48612;50.742;-1.226;2022-09-09T04:00:04;97959.28;;;14.98;100.00
62557;BME280;48612;50.742;-1.226;2022-09-09T04:02:33;97956.91;;;14.96;100.00
62557;BME280;48612;50.742;-1.226;2022-09-09T04:04:59;97939.56;;;14.90;100.00
62557;BME280;48612;50.742;-1.226;2022-09-09T04:07:25;97948.50;;;14.94;100.00
62557;BME280;48612;50.742;-1.226;2022-09-09T04:10:11;97961.59;;;14.99;100.00
62557;BME280;48612;50.742;-1.226;2022-09-09T04:13:10;97958.50;;;14.97;100.00
62557;BME280;48612;50.742;-1.226;2022-09-09T04:15:42;97963.34;;;14.95;100.00
62557;BME280;48612;50.742;-1.226;2022-09-09T04:18:31;97964.88;;;14.96;100.00
62557;BME280;48612;50.742;-1.226;2022-09-09T04:21:38;97971.31;;;14.95;100.00
62557;BME280;48612;50.742;-1.226;2022-09-09T04:24:08;97967.09;;;14.94;100.00
62557;BME280;48612;50.742;-1.226;2022-09-09T04:26:51;97969.47;;;14.87;100.00
62557;BME280;48612;50.742;-1.226;2022-09-09T04:36:15;97985.69;;;14.94;100.00
62557;BME280;48612;50.742;-1.226;2022-09-09T04:38:58;97974.78;;;14.87;100.00
62557;BME280;48612;50.742;-1.226;2022-09-09T04:43:59;98005.69;;;14.91;100.00
62557;BME280;48612;50.742;-1.226;2022-09-09T04:46:26;98003.97;;;14.95;100.00
62557;BME280;48612;50.742;-1.226;2022-09-09T04:48:53;97999.13;;;14.89;100.00
62557;BME280;48612;50.742;-1.226;2022-09-09T04:51:19;98025.38;;;14.99;100.00
62557;BME280;48612;50.742;-1.226;2022-09-09T04:53:45;98004.44;;;14.89;100.00
62557;BME280;48612;50.742;-1.226;2022-09-09T04:56:16;97996.78;;;14.87;100.00
62557;BME280;48612;50.742;-1.226;2022-09-09T04:58:43;98011.16;;;14.95;100.00
62557;BME280;48612;50.742;-1.226;2022-09-09T05:01:12;98034.91;;;15.00;100.00
62557;BME280;48612;50.742;-1.226;2022-09-09T05:03:38;98024.59;;;14.99;100.00
62557;BME280;48612;50.742;-1.226;2022-09-09T05:06:12;98030.38;;;14.92;100.00
62557;BME280;48612;50.742;-1.226;2022-09-09T05:08:40;98018.19;;;14.91;100.00
62557;BME280;48612;50.742;-1.226;2022-09-09T05:14:03;98029.13;;;14.98;100.00
62557;BME280;48612;50.742;-1.226;2022-09-09T05:16:30;98039.59;;;14.94;100.00
62557;BME280;48612;50.742;-1.226;2022-09-09T05:18:55;98039.28;;;14.96;100.00
62557;BME280;48612;50.742;-1.226;2022-09-09T05:21:27;98046.47;;;14.95;100.00
62557;BME280;48612;50.742;-1.226;2022-09-09T05:23:55;98038.34;;;14.92;100.00
62557;BME280;48612;50.742;-1.226;2022-09-09T05:26:25;98065.72;;;15.01;100.00
62557;BME280;48612;50.742;-1.226;2022-09-09T05:28:53;98053.81;;;14.90;100.00
62557;BME280;48612;50.742;-1.226;2022-09-09T05:31:21;98061.97;;;14.93;100.00
62557;BME280;48612;50.742;-1.226;2022-09-09T05:33:54;98063.03;;;14.92;100.00
62557;BME280;48612;50.742;-1.226;2022-09-09T05:36:22;98071.50;;;14.94;100.00
62557;BME280;48612;50.742;-1.226;2022-09-09T05:38:49;98074.75;;;15.00;100.00
62557;BME280;48612;50.742;-1.226;2022-09-09T05:41:16;98073.38;;;14.94;100.00
62557;BME280;48612;50.742;-1.226;2022-09-09T05:43:43;98072.44;;;14.99;100.00
62557;BME280;48612;50.742;-1.226;2022-09-09T05:46:15;98069.28;;;14.96;100.00
62557;BME280;48612;50.742;-1.226;2022-09-09T05:48:43;98074.47;;;15.02;100.00
62557;BME280;48612;50.742;-1.226;2022-09-09T05:51:14;98065.09;;;15.04;100.00
62557;BME280;48612;50.742;-1.226;2022-09-09T05:53:44;98066.97;;;15.04;100.00
62557;BME280;48612;50.742;-1.226;2022-09-09T05:56:20;98065.72;;;15.01;100.00
62557;BME280;48612;50.742;-1.226;2022-09-09T05:58:50;98068.03;;;15.03;100.00
62557;BME280;48612;50.742;-1.226;2022-09-09T06:01:33;98065.84;;;14.96;100.00
62557;BME280;48612;50.742;-1.226;2022-09-09T06:03:59;98081.03;;;15.04;100.00
62557;BME280;48612;50.742;-1.226;2022-09-09T06:06:35;98088.06;;;15.09;100.00
62557;BME280;48612;50.742;-1.226;2022-09-09T06:09:06;98064.94;;;15.01;100.00
62557;BME280;48612;50.742;-1.226;2022-09-09T06:11:37;98081.78;;;15.13;100.00
62557;BME280;48612;50.742;-1.226;2022-09-09T06:14:04;98071.34;;;15.08;100.00
62557;BME280;48612;50.742;-1.226;2022-09-09T06:16:30;98087.91;;;15.23;100.00
62557;BME280;48612;50.742;-1.226;2022-09-09T06:19:00;98079.44;;;15.20;100.00
62557;BME280;48612;50.742;-1.226;2022-09-09T06:21:36;98084.94;;;15.15;100.00
62557;BME280;48612;50.742;-1.226;2022-09-09T06:24:06;98097.44;;;15.24;100.00
62557;BME280;48612;50.742;-1.226;2022-09-09T06:26:34;98106.50;;;15.23;100.00
62557;BME280;48612;50.742;-1.226;2022-09-09T06:29:02;98107.13;;;15.19;100.00
62557;BME280;48612;50.742;-1.226;2022-09-09T06:31:30;98092.91;;;15.15;100.00
62557;BME280;48612;50.742;-1.226;2022-09-09T06:33:57;98112.00;;;15.17;100.00
62557;BME280;48612;50.742;-1.226;2022-09-09T06:36:27;98121.38;;;15.15;100.00
62557;BME280;48612;50.742;-1.226;2022-09-09T06:38:54;98132.78;;;15.15;100.00
62557;BME280;48612;50.742;-1.226;2022-09-09T06:41:22;98124.63;;;15.12;100.00
62557;BME280;48612;50.742;-1.226;2022-09-09T06:43:56;98130.41;;;15.05;100.00
62557;BME280;48612;50.742;-1.226;2022-09-09T06:46:30;98148.22;;;15.13;100.00
62557;BME280;48612;50.742;-1.226;2022-09-09T06:49:00;98146.22;;;15.19;100.00
62557;BME280;48612;50.742;-1.226;2022-09-09T06:51:33;98149.34;;;15.21;100.00
62557;BME280;48612;50.742;-1.226;2022-09-09T06:54:01;98155.75;;;15.29;100.00
62557;BME280;48612;50.742;-1.226;2022-09-09T06:56:53;98159.19;;;15.29;100.00
62557;BME280;48612;50.742;-1.226;2022-09-09T06:59:20;98165.91;;;15.27;100.00
62557;BME280;48612;50.742;-1.226;2022-09-09T07:01:46;98173.88;;;15.27;100.00
62557;BME280;48612;50.742;-1.226;2022-09-09T08:16:07;98468.56;;;16.22;100.00
62557;BME280;48612;50.742;-1.226;2022-09-09T08:19:34;98487.19;;;16.30;100.00
62557;BME280;48612;50.742;-1.226;2022-09-09T08:22:22;98492.53;;;16.39;100.00
62557;BME280;48612;50.742;-1.226;2022-09-09T08:24:53;98488.94;;;16.52;100.00
62557;BME280;48612;50.742;-1.226;2022-09-09T08:27:42;98501.66;;;16.55;100.00
62557;BME280;48612;50.742;-1.226;2022-09-09T08:30:28;98495.69;;;16.67;100.00
62557;BME280;48612;50.742;-1.226;2022-09-09T08:32:53;98500.09;;;16.89;100.00
62557;BME280;48612;50.742;-1.226;2022-09-09T08:35:20;98529.41;;;16.89;100.00
62557;BME280;48612;50.742;-1.226;2022-09-09T08:38:07;98560.13;;;16.78;100.00
62557;BME280;48612;50.742;-1.226;2022-09-09T08:40:38;98581.00;;;16.76;100.00
62557;BME280;48612;50.742;-1.226;2022-09-09T08:43:09;98605.94;;;16.80;100.00
62557;BME280;48612;50.742;-1.226;2022-09-09T08:46:00;98613.44;;;16.78;100.00
62557;BME280;48612;50.742;-1.226;2022-09-09T08:51:04;98630.84;;;16.93;100.00
62557;BME280;48612;50.742;-1.226;2022-09-09T08:53:47;98642.94;;;16.99;100.00
62557;BME280;48612;50.742;-1.226;2022-09-09T08:56:21;98664.28;;;17.07;100.00
62557;BME280;48612;50.742;-1.226;2022-09-09T08:58:53;98672.28;;;17.16;100.00
62557;BME280;48612;50.742;-1.226;2022-09-09T09:01:47;98682.66;;;17.44;100.00
62557;BME280;48612;50.742;-1.226;2022-09-09T09:05:04;98693.63;;;17.94;100.00
62557;BME280;48612;50.742;-1.226;2022-09-09T09:12:59;98798.22;;;18.31;100.00
62557;BME280;48612;50.742;-1.226;2022-09-09T09:15:35;98808.28;;;18.25;100.00
62557;BME280;48612;50.742;-1.226;2022-09-09T09:18:07;98806.84;;;18.28;100.00
62557;BME280;48612;50.742;-1.226;2022-09-09T09:23:21;98837.63;;;18.52;100.00
62557;BME280;48612;50.742;-1.226;2022-09-09T09:25:54;98830.34;;;18.61;100.00
62557;BME280;48612;50.742;-1.226;2022-09-09T09:28:31;98843.88;;;18.64;100.00
62557;BME280;48612;50.742;-1.226;2022-09-09T09:31:12;98840.41;;;18.81;100.00
62557;BME280;48612;50.742;-1.226;2022-09-09T09:36:14;98823.56;;;19.19;100.00
62557;BME280;48612;50.742;-1.226;2022-09-09T09:38:58;98825.34;;;19.15;100.00
62557;BME280;48612;50.742;-1.226;2022-09-09T09:41:34;98841.88;;;19.08;100.00
62557;BME280;48612;50.742;-1.226;2022-09-09T09:44:23;98874.59;;;19.14;100.00
62557;BME280;48612;50.742;-1.226;2022-09-09T09:47:21;98885.41;;;19.26;100.00
62557;BME280;48612;50.742;-1.226;2022-09-09T09:49:57;98883.50;;;19.27;100.00
62557;BME280;48612;50.742;-1.226;2022-09-09T09:52:30;98891.88;;;19.25;100.00
62557;BME280;48612;50.742;-1.226;2022-09-09T09:54:58;98924.44;;;19.27;100.00
62557;BME280;48612;50.742;-1.226;2022-09-09T09:57:47;98943.88;;;19.45;100.00
62557;BME280;48612;50.742;-1.226;2022-09-09T10:00:22;98991.81;;;19.76;100.00
62557;BME280;48612;50.742;-1.226;2022-09-09T10:02:52;99012.25;;;19.89;100.00
62557;BME280;48612;50.742;-1.226;2022-09-09T10:05:38;99054.97;;;19.86;100.00
62557;BME280;48612;50.742;-1.226;2022-09-09T10:08:11;99110.28;;;19.73;100.00
62557;BME280;48612;50.742;-1.226;2022-09-09T10:13:53;99132.19;;;19.40;100.00
62557;BME280;48612;50.742;-1.226;2022-09-09T10:19:31;99083.25;;;19.31;100.00
62557;BME280;48612;50.742;-1.226;2022-09-09T10:22:24;99059.78;;;19.19;100.00
62557;BME280;48612;50.742;-1.226;2022-09-09T10:31:07;98999.56;;;18.53;100.00
62557;BME280;48612;50.742;-1.226;2022-09-09T10:36:32;98937.13;;;18.22;100.00
62557;BME280;48612;50.742;-1.226;2022-09-09T10:42:07;98904.56;;;17.94;100.00
62557;BME280;48612;50.742;-1.226;2022-09-09T10:47:35;98871.72;;;17.76;100.00
62557;BME280;48612;50.742;-1.226;2022-09-09T10:53:07;98867.25;;;17.54;100.00
62557;BME280;48612;50.742;-1.226;2022-09-09T10:56:03;98861.44;;;17.52;100.00
62557;BME280;48612;50.742;-1.226;2022-09-09T10:58:47;98851.88;;;17.60;100.00
62557;BME280;48612;50.742;-1.226;2022-09-09T11:01:33;98856.91;;;17.70;100.00
62557;BME280;48612;50.742;-1.226;2022-09-09T11:06:43;98855.72;;;17.94;100.00
62557;BME280;48612;50.742;-1.226;2022-09-09T11:09:25;98870.19;;;18.01;100.00
62557;BME280;48612;50.742;-1.226;2022-09-09T11:11:54;98873.47;;;17.98;100.00
62557;BME280;48612;50.742;-1.226;2022-09-09T11:14:45;98869.06;;;17.94;100.00
62557;BME280;48612;50.742;-1.226;2022-09-09T11:17:38;98872.22;;;17.87;100.00
62557;BME280;48612;50.742;-1.226;2022-09-09T11:20:13;98870.16;;;17.84;100.00
62557;BME280;48612;50.742;-1.226;2022-09-09T11:23:15;98866.38;;;17.76;100.00
62557;BME280;48612;50.742;-1.226;2022-09-09T11:26:11;98852.88;;;17.82;100.00
62557;BME280;48612;50.742;-1.226;2022-09-09T11:29:13;98845.66;;;17.91;100.00
62557;BME280;48612;50.742;-1.226;2022-09-09T11:35:19;98861.22;;;18.32;100.00
62557;BME280;48612;50.742;-1.226;2022-09-09T11:40:24;98878.94;;;18.63;100.00
62557;BME280;48612;50.742;-1.226;2022-09-09T11:43:10;98883.66;;;18.74;100.00
62557;BME280;48612;50.742;-1.226;2022-09-09T11:45:49;98883.50;;;18.80;100.00
62557;BME280;48612;50.742;-1.226;2022-09-09T11:49:25;98875.16;;;18.90;100.00
62557;BME280;48612;50.742;-1.226;2022-09-09T11:54:32;98856.47;;;18.64;100.00
62557;BME280;48612;50.742;-1.226;2022-09-09T11:57:21;98818.41;;;18.76;100.00
62557;BME280;48612;50.742;-1.226;2022-09-09T12:00:27;98856.25;;;18.95;100.00
62557;BME280;48612;50.742;-1.226;2022-09-09T12:03:01;98896.34;;;19.04;100.00
62557;BME280;48612;50.742;-1.226;2022-09-09T12:05:42;98936.88;;;19.23;100.00
62557;BME280;48612;50.742;-1.226;2022-09-09T12:08:26;98947.06;;;19.38;100.00
62557;BME280;48612;50.742;-1.226;2022-09-09T12:11:22;98971.03;;;19.73;100.00
62557;BME280;48612;50.742;-1.226;2022-09-09T12:13:58;98979.91;;;19.95;100.00
62557;BME280;48612;50.742;-1.226;2022-09-09T12:16:44;99013.31;;;20.27;100.00
62557;BME280;48612;50.742;-1.226;2022-09-09T12:19:18;99043.84;;;20.34;100.00
62557;BME280;48612;50.742;-1.226;2022-09-09T12:27:42;99139.91;;;20.62;100.00
62557;BME280;48612;50.742;-1.226;2022-09-09T12:30:41;99166.22;;;20.69;100.00
62557;BME280;48612;50.742;-1.226;2022-09-09T12:33:18;99181.97;;;20.70;100.00
62557;BME280;48612;50.742;-1.226;2022-09-09T12:35:48;99239.94;;;20.54;100.00
62557;BME280;48612;50.742;-1.226;2022-09-09T12:38:50;99315.00;;;20.36;100.00
62557;BME280;48612;50.742;-1.226;2022-09-09T12:41:20;99342.78;;;20.23;100.00
62557;BME280;48612;50.742;-1.226;2022-09-09T12:43:51;99358.53;;;20.33;100.00
62557;BME280;48612;50.742;-1.226;2022-09-09T12:46:32;99346.56;;;20.31;100.00
62557;BME280;48612;50.742;-1.226;2022-09-09T12:49:18;99333.97;;;20.05;100.00
62557;BME280;48612;50.742;-1.226;2022-09-09T12:54:56;99258.22;;;19.04;100.00
62557;BME280;48612;50.742;-1.226;2022-09-09T12:57:31;99208.06;;;19.18;100.00
62557;BME280;48612;50.742;-1.226;2022-09-09T13:00:20;99200.53;;;19.38;100.00
62557;BME280;48612;50.742;-1.226;2022-09-09T13:03:16;99200.06;;;19.44;100.00
62557;BME280;48612;50.742;-1.226;2022-09-09T13:05:45;99176.44;;;19.47;100.00
62557;BME280;48612;50.742;-1.226;2022-09-09T13:08:18;99196.72;;;19.48;100.00
62557;BME280;48612;50.742;-1.226;2022-09-09T13:11:04;99216.56;;;19.20;100.00
62557;BME280;48612;50.742;-1.226;2022-09-09T13:13:38;99212.31;;;19.11;100.00
62557;BME280;48612;50.742;-1.226;2022-09-09T13:16:15;99203.44;;;18.84;100.00
62557;BME280;48612;50.742;-1.226;2022-09-09T13:19:16;99167.75;;;18.97;100.00
62557;BME280;48612;50.742;-1.226;2022-09-09T13:25:05;99115.38;;;18.96;100.00
62557;BME280;48612;50.742;-1.226;2022-09-09T13:28:03;99111.44;;;19.11;100.00
62557;BME280;48612;50.742;-1.226;2022-09-09T13:30:33;99115.84;;;19.25;100.00
62557;BME280;48612;50.742;-1.226;2022-09-09T13:36:03;99104.34;;;19.07;100.00
62557;BME280;48612;50.742;-1.226;2022-09-09T13:39:04;99088.47;;;18.93;100.00
62557;BME280;48612;50.742;-1.226;2022-09-09T13:41:46;99083.88;;;18.76;100.00
62557;BME280;48612;50.742;-1.226;2022-09-09T13:48:08;99059.16;;;18.70;100.00
62557;BME280;48612;50.742;-1.226;2022-09-09T13:50:37;99017.81;;;20.05;100.00
62557;BME280;48612;50.742;-1.226;2022-09-09T13:53:03;99126.44;;;19.94;100.00
62557;BME280;48612;50.742;-1.226;2022-09-09T13:55:39;99136.41;;;20.23;100.00
62557;BME280;48612;50.742;-1.226;2022-09-09T13:58:25;99201.44;;;20.50;100.00
62557;BME280;48612;50.742;-1.226;2022-09-09T14:01:28;99217.63;;;20.24;100.00
62557;BME280;48612;50.742;-1.226;2022-09-09T14:03:54;99154.94;;;22.62;100.00
62557;BME280;48612;50.742;-1.226;2022-09-09T14:06:35;99385.66;;;23.72;100.00
62557;BME280;48612;50.742;-1.226;2022-09-09T14:09:29;99565.31;;;25.82;100.00
62557;BME280;48612;50.742;-1.226;2022-09-09T14:11:56;99645.78;;;24.89;100.00
62557;BME280;48612;50.742;-1.226;2022-09-09T14:14:23;99653.22;;;24.43;100.00
62557;BME280;48612;50.742;-1.226;2022-09-09T14:16:50;99683.03;;;24.46;100.00
62557;BME280;48612;50.742;-1.226;2022-09-09T14:19:20;99673.44;;;23.45;100.00
62557;BME280;48612;50.742;-1.226;2022-09-09T14:21:58;99617.03;;;22.36;100.00
62557;BME280;48612;50.742;-1.226;2022-09-09T14:24:27;99629.47;;;22.02;100.00
62557;BME280;48612;50.742;-1.226;2022-09-09T14:26:59;99601.97;;;21.32;100.00
62557;BME280;48612;50.742;-1.226;2022-09-09T14:29:29;99571.84;;;21.00;100.00
62557;BME280;48612;50.742;-1.226;2022-09-09T14:32:00;99515.81;;;20.55;100.00
62557;BME280;48612;50.742;-1.226;2022-09-09T14:34:29;99492.91;;;20.41;100.00
62557;BME280;48612;50.742;-1.226;2022-09-09T14:37:08;99445.28;;;20.20;100.00
62557;BME280;48612;50.742;-1.226;2022-09-09T14:39:33;99417.19;;;20.09;100.00
62557;BME280;48612;50.742;-1.226;2022-09-09T14:42:01;99389.75;;;19.95;100.00
62557;BME280;48612;50.742;-1.226;2022-09-09T14:44:28;99359.81;;;19.84;100.00
62557;BME280;48612;50.742;-1.226;2022-09-09T14:47:08;99337.75;;;19.96;100.00
62557;BME280;48612;50.742;-1.226;2022-09-09T14:49:57;99323.25;;;19.79;100.00
62557;BME280;48612;50.742;-1.226;2022-09-09T14:52:33;99286.03;;;19.52;100.00
62557;BME280;48612;50.742;-1.226;2022-09-09T15:17:33;99071.06;;;17.98;100.00
62557;BME280;48612;50.742;-1.226;2022-09-09T15:20:08;99051.91;;;17.96;100.00
62557;BME280;48612;50.742;-1.226;2022-09-09T15:23:04;99002.75;;;17.97;100.00
62557;BME280;48612;50.742;-1.226;2022-09-09T15:25:37;98960.97;;;17.93;100.00
62557;BME280;48612;50.742;-1.226;2022-09-09T15:28:08;98960.47;;;17.91;100.00
62557;BME280;48612;50.742;-1.226;2022-09-09T15:30:34;98949.47;;;17.84;100.00
62557;BME280;48612;50.742;-1.226;2022-09-09T15:33:00;98909.53;;;17.70;100.00
62557;BME280;48612;50.742;-1.226;2022-09-09T15:35:45;98884.22;;;17.67;100.00
62557;BME280;48612;50.742;-1.226;2022-09-09T15:38:36;98866.16;;;17.64;100.00
62557;BME280;48612;50.742;-1.226;2022-09-09T15:41:23;98844.34;;;17.71;100.00
62557;BME280;48612;50.742;-1.226;2022-09-09T15:43:51;98812.22;;;17.93;100.00
62557;BME280;48612;50.742;-1.226;2022-09-09T15:46:52;98824.44;;;18.29;100.00
62557;BME280;48612;50.742;-1.226;2022-09-09T15:49:38;98824.31;;;18.34;100.00
62557;BME280;48612;50.742;-1.226;2022-09-09T15:52:08;98843.94;;;18.38;100.00
62557;BME280;48612;50.742;-1.226;2022-09-09T15:54:37;98839.53;;;18.42;100.00
62557;BME280;48612;50.742;-1.226;2022-09-09T15:57:06;98824.75;;;18.36;100.00
62557;BME280;48612;50.742;-1.226;2022-09-09T15:59:36;98801.81;;;18.35;100.00
62557;BME280;48612;50.742;-1.226;2022-09-09T16:02:20;98803.53;;;18.40;100.00
62557;BME280;48612;50.742;-1.226;2022-09-09T16:04:45;98799.75;;;18.41;100.00
62557;BME280;48612;50.742;-1.226;2022-09-09T16:07:34;98805.75;;;18.38;100.00
62557;BME280;48612;50.742;-1.226;2022-09-09T16:10:24;98797.09;;;18.32;100.00
62557;BME280;48612;50.742;-1.226;2022-09-09T16:13:20;98782.63;;;18.33;100.00
62557;BME280;48612;50.742;-1.226;2022-09-09T16:15:56;98796.63;;;18.30;100.00
62557;BME280;48612;50.742;-1.226;2022-09-09T16:18:42;98787.03;;;18.29;100.00
62557;BME280;48612;50.742;-1.226;2022-09-09T16:21:35;98784.84;;;18.22;100.00
62557;BME280;48612;50.742;-1.226;2022-09-09T16:24:16;98787.69;;;18.09;100.00
62557;BME280;48612;50.742;-1.226;2022-09-09T16:26:56;98794.00;;;17.95;100.00
62557;BME280;48612;50.742;-1.226;2022-09-09T16:29:26;98804.19;;;17.85;100.00
62557;BME280;48612;50.742;-1.226;2022-09-09T16:32:14;98793.66;;;17.71;100.00
62557;BME280;48612;50.742;-1.226;2022-09-09T16:34:39;98792.72;;;17.67;100.00
62557;BME280;48612;50.742;-1.226;2022-09-09T16:37:10;98783.13;;;17.66;100.00
62557;BME280;48612;50.742;-1.226;2022-09-09T16:39:37;98777.19;;;17.69;100.00
62557;BME280;48612;50.742;-1.226;2022-09-09T16:42:03;98788.16;;;17.67;100.00
62557;BME280;48612;50.742;-1.226;2022-09-09T16:44:30;98779.84;;;17.69;100.00
62557;BME280;48612;50.742;-1.226;2022-09-09T16:46:59;98777.63;;;17.71;100.00
62557;BME280;48612;50.742;-1.226;2022-09-09T16:49:29;98777.78;;;17.74;100.00
62557;BME280;48612;50.742;-1.226;2022-09-09T16:51:58;98774.34;;;17.74;100.00
62557;BME280;48612;50.742;-1.226;2022-09-09T16:54:47;98770.72;;;17.70;100.00
62557;BME280;48612;50.742;-1.226;2022-09-09T18:54:24;98662.59;;;15.92;100.00
62557;BME280;48612;50.742;-1.226;2022-09-09T18:57:03;98658.84;;;15.93;100.00
62557;BME280;48612;50.742;-1.226;2022-09-09T18:59:31;98663.97;;;15.89;100.00
62557;BME280;48612;50.742;-1.226;2022-09-09T19:01:57;98654.75;;;15.87;100.00
62557;BME280;48612;50.742;-1.226;2022-09-09T19:04:23;98681.06;;;15.88;100.00
62557;BME280;48612;50.742;-1.226;2022-09-09T19:06:54;98684.63;;;15.84;100.00
62557;BME280;48612;50.742;-1.226;2022-09-09T19:09:26;98679.31;;;15.84;100.00
62557;BME280;48612;50.742;-1.226;2022-09-09T19:11:52;98684.31;;;15.85;100.00
62557;BME280;48612;50.742;-1.226;2022-09-09T19:14:18;98681.19;;;15.83;100.00
62557;BME280;48612;50.742;-1.226;2022-09-09T19:17:04;98657.84;;;15.80;100.00
62557;BME280;48612;50.742;-1.226;2022-09-09T19:19:33;98667.88;;;15.83;100.00
62557;BME280;48612;50.742;-1.226;2022-09-09T19:22:00;98665.22;;;15.83;100.00
62557;BME280;48612;50.742;-1.226;2022-09-09T19:24:31;98680.88;;;15.85;100.00
62557;BME280;48612;50.742;-1.226;2022-09-09T19:49:49;98710.59;;;15.64;100.00
62557;BME280;48612;50.742;-1.226;2022-09-09T19:52:17;98719.66;;;15.63;100.00